createdAt,value
2019-04-21T00:00:39.815Z,64.72
2019-04-21T00:03:19.391Z,64.69
2019-04-21T00:06:03.305Z,64.51
2019-04-21T00:13:27.977Z,65.30
2019-04-21T00:15:53.240Z,65.55
2019-04-21T00:18:21.381Z,65.69
2019-04-21T00:20:56.213Z,65.95
2019-04-21T00:23:41.261Z,66.00
2019-04-21T00:26:03.972Z,65.84
2019-04-21T00:28:49.119Z,66.01
2019-04-21T00:31:12.679Z,66.29
2019-04-21T00:33:33.408Z,66.58
2019-04-21T00:36:06.882Z,66.59
2019-04-21T00:39:03.111Z,66.56
2019-04-21T00:41:26.088Z,66.63
2019-04-21T00:43:47.935Z,66.87
2019-04-21T00:46:17.517Z,66.74
2019-04-21T00:48:56.496Z,66.96
2019-04-21T00:54:13.345Z,67.56
2019-04-21T00:56:41.342Z,67.57
2019-04-21T00:59:16.395Z,67.60
2019-04-21T01:01:40.580Z,67.92
2019-04-21T01:04:13.953Z,68.11
2019-04-21T01:06:45.027Z,68.50
2019-04-21T01:09:07.694Z,69.28
2019-04-21T01:11:52.963Z,69.42
2019-04-21T01:14:21.958Z,70.19
2019-04-21T01:16:51.377Z,69.86
2019-04-21T01:19:18.299Z,70.07
2019-04-21T01:21:29.080Z,70.89
2019-04-21T01:24:07.843Z,70.79
2019-04-21T01:26:42.972Z,70.74
2019-04-21T01:29:16.965Z,72.23
2019-04-21T01:31:51.166Z,71.86
2019-04-21T01:34:20.583Z,71.14
2019-04-21T01:36:55.742Z,71.57
2019-04-21T01:39:39.421Z,71.50
2019-04-21T01:42:04.932Z,71.67
2019-04-21T01:44:39.100Z,71.39
2019-04-21T01:46:58.622Z,71.74
2019-04-21T01:49:26.389Z,71.77
2019-04-21T01:55:06.398Z,71.97
2019-04-21T01:57:47.057Z,72.64
2019-04-21T02:00:12.529Z,72.33
2019-04-21T02:02:59.565Z,71.98
2019-04-21T02:05:31.532Z,71.76
2019-04-21T02:07:55.041Z,71.39
2019-04-21T02:10:34.662Z,71.57
2019-04-21T02:12:56.544Z,71.38
2019-04-21T02:15:43.761Z,71.31
2019-04-21T02:18:06.083Z,70.87
2019-04-21T02:20:25.909Z,70.76
2019-04-21T02:23:19.071Z,70.48
2019-04-21T02:25:39.971Z,70.53
2019-04-21T02:28:13.506Z,70.59
2019-04-21T02:38:30.638Z,69.95
2019-04-21T02:40:51.348Z,70.14
2019-04-21T02:43:46.634Z,70.60
2019-04-21T02:51:03.930Z,71.40
2019-04-21T02:58:43.729Z,70.80
2019-04-21T03:01:38.314Z,70.46
2019-04-21T03:03:56.178Z,70.87
2019-04-21T03:06:59.846Z,70.93
2019-04-21T03:09:20.462Z,70.87
2019-04-21T03:11:48.985Z,71.07
2019-04-21T03:14:30.293Z,71.31
2019-04-21T03:16:47.202Z,70.89
2019-04-21T03:19:33.035Z,70.87
2019-04-21T03:21:57.586Z,70.83
2019-04-21T03:24:17.330Z,70.93
2019-04-21T03:29:28.467Z,70.74
2019-04-21T03:35:09.018Z,69.89
2019-04-21T03:37:07.698Z,69.00
2019-04-21T03:39:36.607Z,68.47
2019-04-21T03:42:27.061Z,68.47
2019-04-21T03:55:41.431Z,68.93
2019-04-21T03:58:07.158Z,68.29
2019-04-21T04:00:44.974Z,68.48
2019-04-21T04:03:23.572Z,68.61
2019-04-21T04:05:59.642Z,69.28
2019-04-21T04:08:44.779Z,68.79
2019-04-21T04:11:14.365Z,68.66
2019-04-21T04:13:53.719Z,68.99
2019-04-21T04:16:06.111Z,68.84
2019-04-21T04:18:46.608Z,68.55
2019-04-21T04:21:16.870Z,68.02
2019-04-21T04:23:49.331Z,67.30
2019-04-21T04:31:25.813Z,68.72
2019-04-21T04:33:55.593Z,69.24
2019-04-21T04:36:26.381Z,69.41
2019-04-21T04:39:01.077Z,69.61
2019-04-21T04:41:32.356Z,69.90
2019-04-21T04:44:08.193Z,69.70
2019-04-21T04:46:33.467Z,69.96
2019-04-21T04:49:17.764Z,70.58
2019-04-21T04:51:43.954Z,70.36
2019-04-21T04:53:51.173Z,70.33
2019-04-21T04:59:23.297Z,70.19
2019-04-21T05:01:42.786Z,70.15
2019-04-21T05:04:10.305Z,70.19
2019-04-21T05:06:51.335Z,70.36
2019-04-21T05:09:27.074Z,70.50
2019-04-21T05:19:16.453Z,68.49
2019-04-21T05:21:42.304Z,67.33
2019-04-21T05:24:07.534Z,66.83
2019-04-21T05:26:37.110Z,65.38
2019-04-21T05:29:03.080Z,65.40
2019-04-21T05:31:56.997Z,64.89
2019-04-21T05:34:22.136Z,65.58
2019-04-21T05:37:01.094Z,65.69
2019-04-21T05:39:37.952Z,66.20
2019-04-21T05:42:02.121Z,66.11
2019-04-21T05:44:56.758Z,67.00
2019-04-21T05:47:26.511Z,66.88
2019-04-21T05:49:45.475Z,67.38
2019-04-21T05:52:14.608Z,67.00
2019-04-21T05:54:57.346Z,66.82
2019-04-21T05:57:23.876Z,65.96
2019-04-21T05:59:53.203Z,65.36
2019-04-21T06:02:44.142Z,67.76
2019-04-21T06:07:30.905Z,65.43
2019-04-21T06:09:59.637Z,64.77
2019-04-21T06:12:37.788Z,65.37
2019-04-21T06:15:01.059Z,63.78
2019-04-21T06:17:35.176Z,63.95
2019-04-21T06:20:07.965Z,62.91
2019-04-21T06:22:40.334Z,62.58
2019-04-21T06:25:35.888Z,63.38
2019-04-21T06:27:38.894Z,58.36
2019-04-21T06:30:10.353Z,58.42
2019-04-21T06:35:45.936Z,61.07
2019-04-21T06:38:03.727Z,58.84
2019-04-21T06:40:35.770Z,61.55
2019-04-21T06:43:20.858Z,60.68
2019-04-21T06:45:45.868Z,60.88
2019-04-21T06:48:10.979Z,59.49
2019-04-21T06:50:46.117Z,58.29
2019-04-21T06:53:14.586Z,58.24
2019-04-21T06:55:37.404Z,59.71
2019-04-21T06:58:10.406Z,56.46
2019-04-21T07:00:40.905Z,55.78
2019-04-21T07:03:19.584Z,53.99
2019-04-21T07:05:52.079Z,55.26
2019-04-21T07:08:32.745Z,56.79
2019-04-21T07:10:54.567Z,54.51
2019-04-21T07:13:15.607Z,53.55
2019-04-21T07:15:50.149Z,54.61
2019-04-21T07:18:27.542Z,54.44
2019-04-21T07:20:53.590Z,55.06
2019-04-21T07:23:31.166Z,54.07
2019-04-21T07:25:58.147Z,54.10
2019-04-21T07:28:34.553Z,53.60
2019-04-21T07:31:07.145Z,53.16
2019-04-21T07:33:49.291Z,53.28
2019-04-21T07:36:03.999Z,52.20
2019-04-21T07:38:33.162Z,51.99
2019-04-21T07:40:56.754Z,53.37
2019-04-21T07:43:33.227Z,51.30
2019-04-21T07:45:58.156Z,51.66
2019-04-21T07:48:52.032Z,51.66
2019-04-21T07:51:31.837Z,51.74
2019-04-21T07:54:11.729Z,50.56
2019-04-21T07:56:20.279Z,50.16
2019-04-21T07:59:18.894Z,50.60
2019-04-21T08:01:37.336Z,50.12
2019-04-21T08:04:34.893Z,47.20
2019-04-21T08:06:42.087Z,50.22
2019-04-21T08:09:12.100Z,47.48
2019-04-21T08:11:44.274Z,47.69
2019-04-21T08:14:19.263Z,48.81
2019-04-21T08:16:55.566Z,49.20
2019-04-21T08:19:22.162Z,49.14
2019-04-21T08:24:24.194Z,46.95
2019-04-21T08:26:53.106Z,47.12
2019-04-21T08:29:39.461Z,45.50
2019-04-21T08:32:02.828Z,48.72
2019-04-21T08:34:31.455Z,47.15
2019-04-21T08:36:57.561Z,45.67
2019-04-21T08:39:33.141Z,47.80
2019-04-21T08:41:59.793Z,46.79
2019-04-21T08:44:33.439Z,46.17
2019-04-21T08:47:20.440Z,47.08
2019-04-21T08:49:39.183Z,45.54
2019-04-21T08:52:28.484Z,41.62
2019-04-21T08:54:36.771Z,45.79
2019-04-21T08:57:10.093Z,42.94
2019-04-21T08:59:48.556Z,40.78
2019-04-21T09:02:23.319Z,43.00
2019-04-21T09:04:52.745Z,42.57
2019-04-21T09:07:30.381Z,38.83
2019-04-21T09:09:52.868Z,41.85
2019-04-21T09:12:22.616Z,40.94
2019-04-21T09:14:56.761Z,38.62
2019-04-21T09:17:20.603Z,37.78
2019-04-21T09:20:06.284Z,40.04
2019-04-21T09:22:32.444Z,37.85
2019-04-21T09:24:56.040Z,36.91
2019-04-21T09:27:33.686Z,34.09
2019-04-21T09:29:52.149Z,36.29
2019-04-21T09:32:20.500Z,37.40
2019-04-21T09:34:50.684Z,34.91
2019-04-21T09:37:32.998Z,34.13
2019-04-21T09:39:55.131Z,34.23
2019-04-21T09:42:32.298Z,33.48
2019-04-21T09:44:57.951Z,34.97
2019-04-21T09:47:35.071Z,31.42
2019-04-21T09:49:56.348Z,31.22
2019-04-21T09:52:34.642Z,33.11
2019-04-21T09:55:06.171Z,33.67
2019-04-21T09:57:40.514Z,32.95
2019-04-21T10:00:06.770Z,32.88
2019-04-21T10:02:39.943Z,32.26
2019-04-21T10:05:02.785Z,30.61
2019-04-21T10:07:38.241Z,29.13
2019-04-21T10:10:08.206Z,29.79
2019-04-21T10:12:37.979Z,29.32
2019-04-21T10:15:08.576Z,28.27
2019-04-21T10:17:39.821Z,30.95
2019-04-21T10:20:11.640Z,32.75
2019-04-21T10:22:41.486Z,29.34
2019-04-21T10:25:12.553Z,26.51
2019-04-21T10:27:43.384Z,27.60
2019-04-21T10:30:16.118Z,28.78
2019-04-21T10:32:46.086Z,25.13
2019-04-21T10:35:18.163Z,24.11
2019-04-21T10:37:58.163Z,26.73
2019-04-21T10:40:18.393Z,27.03
2019-04-21T10:42:48.152Z,24.87
2019-04-21T10:45:19.032Z,24.99
2019-04-21T10:47:49.322Z,26.14
2019-04-21T10:50:20.689Z,26.63
2019-04-21T10:52:53.141Z,27.18
2019-04-21T10:55:40.482Z,25.94
2019-04-21T10:58:10.806Z,26.62
2019-04-21T11:00:44.326Z,27.05
2019-04-21T11:03:33.071Z,25.79
2019-04-21T11:06:04.314Z,24.84
2019-04-21T11:08:38.030Z,23.62
2019-04-21T11:11:05.815Z,23.96
2019-04-21T11:13:36.914Z,21.62
2019-04-21T11:16:06.566Z,22.45
2019-04-21T11:18:36.150Z,23.96
2019-04-21T11:21:07.004Z,22.27
2019-04-21T11:23:37.481Z,22.93
2019-04-21T11:26:08.076Z,23.31
2019-04-21T11:28:38.774Z,23.36
2019-04-21T11:31:09.041Z,22.77
2019-04-21T11:33:39.572Z,22.91
2019-04-21T11:36:09.156Z,23.94
2019-04-21T11:38:58.475Z,23.81
2019-04-21T11:41:16.010Z,24.46
2019-04-21T11:43:45.655Z,22.73
2019-04-21T11:46:16.269Z,22.73
2019-04-21T11:48:46.187Z,22.50
2019-04-21T11:51:17.101Z,23.00
2019-04-21T11:53:46.673Z,23.04
2019-04-21T11:56:18.867Z,23.28
2019-04-21T11:58:49.958Z,21.86
2019-04-21T12:01:21.304Z,22.09
2019-04-21T12:03:53.679Z,22.05
2019-04-21T12:06:28.976Z,19.75
2019-04-21T12:08:57.542Z,20.21
2019-04-21T12:11:25.424Z,22.09
2019-04-21T12:13:56.161Z,21.07
2019-04-21T12:16:25.897Z,21.44
2019-04-21T12:18:56.691Z,22.09
2019-04-21T12:21:29.565Z,25.28
2019-04-21T12:23:58.582Z,26.02
2019-04-21T12:26:28.404Z,23.89
2019-04-21T12:28:59.692Z,25.29
2019-04-21T12:31:31.733Z,23.54
2019-04-21T12:34:03.651Z,24.58
2019-04-21T12:36:33.808Z,24.25
2019-04-21T12:39:06.760Z,23.48
2019-04-21T12:41:36.301Z,25.50
2019-04-21T12:44:06.720Z,25.28
2019-04-21T12:46:36.297Z,23.70
2019-04-21T12:49:05.949Z,23.07
2019-04-21T12:51:35.660Z,23.48
2019-04-21T12:54:05.853Z,22.86
2019-04-21T12:56:35.739Z,23.57
2019-04-21T12:59:05.412Z,24.25
2019-04-21T13:01:35.052Z,24.04
2019-04-21T13:04:05.807Z,22.59
2019-04-21T13:06:35.476Z,23.23
2019-04-21T13:09:10.729Z,25.46
2019-04-21T13:11:39.243Z,24.58
2019-04-21T13:14:08.884Z,24.37
2019-04-21T13:16:39.237Z,26.60
2019-04-21T13:19:09.364Z,26.24
2019-04-21T13:21:40.315Z,28.49
2019-04-21T13:24:10.002Z,30.08
2019-04-21T13:26:48.478Z,27.43
2019-04-21T13:29:10.746Z,27.71
2019-04-21T13:31:40.475Z,27.57
2019-04-21T13:34:10.497Z,26.42
2019-04-21T13:36:41.328Z,25.24
2019-04-21T13:42:11.046Z,26.92
2019-04-21T13:44:32.934Z,26.65
2019-04-21T13:47:02.804Z,24.42
2019-04-21T13:49:33.351Z,27.09
2019-04-21T13:52:02.958Z,25.65
2019-04-21T13:54:35.695Z,24.87
2019-04-21T13:57:05.373Z,23.32
2019-04-21T13:59:36.213Z,21.74
2019-04-21T14:02:08.965Z,23.55
2019-04-21T14:04:38.495Z,22.24
2019-04-21T14:07:08.262Z,21.82
2019-04-21T14:09:47.645Z,21.22
2019-04-21T14:12:09.719Z,22.86
2019-04-21T14:14:39.359Z,26.63
2019-04-21T14:17:09.068Z,25.68
2019-04-21T14:19:39.437Z,23.96
2019-04-21T14:22:11.622Z,25.21
2019-04-21T14:24:41.659Z,23.45
2019-04-21T14:27:12.156Z,24.50
2019-04-21T14:29:41.799Z,24.06
2019-04-21T14:32:11.396Z,22.57
2019-04-21T14:34:41.995Z,22.56
2019-04-21T14:37:13.008Z,22.00
2019-04-21T14:39:53.840Z,20.85
2019-04-21T14:42:18.024Z,23.93
2019-04-21T14:44:49.046Z,21.44
2019-04-21T14:47:23.303Z,20.54
2019-04-21T14:50:11.484Z,21.48
2019-04-21T14:52:41.392Z,21.00
2019-04-21T14:55:18.807Z,20.90
2019-04-21T14:57:49.344Z,20.56
2019-04-21T15:00:22.870Z,20.01
2019-04-21T15:02:53.698Z,19.63
2019-04-21T15:05:23.270Z,21.44
2019-04-21T15:07:55.161Z,21.91
2019-04-21T15:10:28.598Z,20.64
2019-04-21T15:12:56.182Z,22.66
2019-04-21T15:15:25.689Z,22.32
2019-04-21T15:17:55.715Z,23.52
2019-04-21T15:20:26.832Z,22.50
2019-04-21T15:22:56.597Z,23.95
2019-04-21T15:25:26.170Z,21.21
2019-04-21T15:27:59.093Z,22.21
2019-04-21T15:30:28.887Z,21.43
2019-04-21T15:32:58.378Z,23.55
2019-04-21T15:35:29.358Z,20.97
2019-04-21T15:38:00.006Z,22.44
2019-04-21T15:40:40.410Z,22.84
2019-04-21T15:43:02.287Z,20.41
2019-04-21T15:45:32.577Z,21.00
2019-04-21T15:48:02.285Z,21.78
2019-04-21T15:50:32.338Z,21.92
2019-04-21T15:53:03.570Z,20.49
2019-04-21T15:55:46.983Z,21.04
2019-04-21T15:58:20.626Z,22.31
2019-04-21T16:00:58.559Z,21.06
2019-04-21T16:03:29.017Z,21.21
2019-04-21T16:05:59.369Z,20.86
2019-04-21T16:08:29.102Z,19.64
2019-04-21T16:11:02.561Z,18.94
2019-04-21T16:13:29.972Z,18.84
2019-04-21T16:15:59.721Z,18.72
2019-04-21T16:18:32.233Z,20.39
2019-04-21T16:21:06.037Z,19.90
2019-04-21T16:23:36.152Z,21.45
2019-04-21T16:26:06.901Z,20.69
2019-04-21T16:28:37.378Z,19.84
2019-04-21T16:31:07.253Z,20.51
2019-04-21T16:33:36.891Z,21.06
2019-04-21T16:36:09.901Z,19.04
2019-04-21T16:38:38.025Z,19.56
2019-04-21T16:41:10.552Z,18.51
2019-04-21T16:43:41.031Z,18.63
2019-04-21T16:46:10.848Z,19.06
2019-04-21T16:48:41.901Z,19.62
2019-04-21T16:51:11.571Z,20.22
2019-04-21T16:53:46.146Z,20.94
2019-04-21T16:56:17.402Z,20.94
2019-04-21T16:58:48.549Z,20.12
2019-04-21T17:01:20.544Z,20.32
2019-04-21T17:03:50.885Z,21.34
2019-04-21T17:06:24.870Z,20.05
2019-04-21T17:08:56.790Z,20.07
2019-04-21T17:11:31.700Z,19.90
2019-04-21T17:14:00.097Z,20.03
2019-04-21T17:19:13.487Z,20.28
2019-04-21T17:21:35.393Z,19.70
2019-04-21T17:24:06.563Z,19.71
2019-04-21T17:26:41.119Z,20.65
2019-04-21T17:29:10.586Z,20.88
2019-04-21T17:31:41.388Z,21.94
2019-04-21T17:34:16.233Z,21.77
2019-04-21T17:36:43.209Z,23.30
2019-04-21T17:39:13.182Z,23.03
2019-04-21T17:42:04.102Z,24.12
2019-04-21T17:44:17.171Z,22.96
2019-04-21T17:46:55.628Z,23.22
2019-04-21T17:49:18.909Z,23.51
2019-04-21T17:52:09.805Z,23.85
2019-04-21T17:54:46.578Z,23.87
2019-04-21T17:57:33.468Z,23.59
2019-04-21T18:00:05.179Z,24.37
2019-04-21T18:02:36.929Z,24.69
2019-04-21T18:05:08.599Z,25.23
2019-04-21T18:07:35.178Z,25.64
2019-04-21T18:10:07.711Z,26.31
2019-04-21T18:12:36.473Z,26.66
2019-04-21T18:15:00.207Z,26.20
2019-04-21T18:17:22.845Z,25.65
2019-04-21T18:19:59.682Z,26.38
2019-04-21T18:22:49.880Z,26.00
2019-04-21T18:25:34.698Z,26.38
2019-04-21T18:27:52.386Z,26.06
2019-04-21T18:30:39.961Z,26.31
2019-04-21T18:33:18.043Z,26.19
2019-04-21T18:35:48.127Z,26.44
2019-04-21T18:38:22.822Z,26.96
2019-04-21T18:40:51.347Z,29.32
2019-04-21T18:46:25.841Z,30.89
2019-04-21T18:48:57.117Z,31.50
2019-04-21T18:51:35.903Z,31.39
2019-04-21T18:54:22.643Z,31.80
2019-04-21T18:56:31.794Z,31.99
2019-04-21T18:59:02.475Z,32.33
2019-04-21T19:01:35.194Z,33.76
2019-04-21T19:04:06.365Z,34.14
2019-04-21T19:06:52.850Z,34.42
2019-04-21T19:09:35.084Z,35.60
2019-04-21T19:12:06.039Z,36.11
2019-04-21T19:14:50.617Z,35.73
2019-04-21T19:17:38.374Z,37.24
2019-04-21T19:20:02.660Z,37.88
2019-04-21T19:22:09.152Z,38.30
2019-04-21T19:24:48.396Z,38.63
2019-04-21T19:27:19.276Z,38.67
2019-04-21T19:29:53.990Z,38.65
2019-04-21T19:34:36.718Z,39.83
2019-04-21T19:37:11.514Z,40.05
2019-04-21T19:39:51.212Z,39.75
2019-04-21T19:42:18.573Z,40.58
2019-04-21T19:44:56.421Z,42.04
2019-04-21T19:47:27.851Z,40.90
2019-04-21T19:50:01.835Z,41.70
2019-04-21T19:52:26.964Z,41.56
2019-04-21T19:54:48.215Z,39.74
2019-04-21T19:57:14.565Z,43.56
2019-04-21T19:59:49.622Z,46.14
2019-04-21T20:02:16.491Z,45.11
2019-04-21T20:04:57.005Z,46.39
2019-04-21T20:07:32.919Z,45.80
2019-04-21T20:10:11.420Z,44.75
2019-04-21T20:12:42.670Z,45.66
2019-04-21T20:15:20.499Z,45.19
2019-04-21T20:17:36.425Z,45.07
2019-04-21T20:19:54.350Z,44.17
2019-04-21T20:22:30.964Z,44.62
2019-04-21T20:25:02.558Z,44.39
2019-04-21T20:27:38.641Z,44.42
2019-04-21T20:30:16.171Z,43.84
2019-04-21T20:32:49.066Z,46.25
2019-04-21T20:35:22.480Z,47.25
2019-04-21T20:37:47.900Z,46.58
2019-04-21T20:40:10.202Z,46.58
2019-04-21T20:42:49.410Z,47.60
2019-04-21T20:45:34.810Z,47.60
2019-04-21T20:47:44.741Z,47.56
2019-04-21T20:50:19.648Z,47.90
2019-04-21T20:52:58.310Z,47.88
2019-04-21T20:55:22.486Z,48.52
2019-04-21T20:57:58.033Z,48.58
2019-04-21T21:00:39.254Z,48.97
2019-04-21T21:03:07.100Z,48.97
2019-04-21T21:05:35.055Z,48.59
2019-04-21T21:08:13.755Z,48.52
2019-04-21T21:10:38.545Z,48.52
2019-04-21T21:13:24.384Z,48.18
2019-04-21T21:15:52.370Z,48.40
2019-04-21T21:18:35.566Z,49.39
2019-04-21T21:20:49.861Z,49.12
2019-04-21T21:23:11.577Z,48.78
2019-04-21T21:25:52.989Z,48.19
2019-04-21T21:28:22.715Z,48.03
2019-04-21T21:30:46.546Z,47.13
2019-04-21T21:33:46.861Z,47.16
2019-04-21T21:35:52.529Z,45.26
2019-04-21T21:38:28.186Z,46.63
2019-04-21T21:40:54.678Z,45.04
2019-04-21T21:43:17.573Z,44.84
2019-04-21T21:45:50.040Z,44.39
2019-04-21T21:48:38.256Z,44.04
2019-04-21T21:50:57.786Z,44.71
2019-04-21T21:53:21.442Z,43.99
2019-04-21T21:55:48.885Z,43.99
2019-04-21T21:58:25.118Z,44.49
2019-04-21T22:00:56.668Z,44.46
2019-04-21T22:03:33.011Z,44.93
2019-04-21T22:06:01.887Z,44.84
2019-04-21T22:08:28.299Z,45.36
2019-04-21T22:10:59.082Z,45.15
2019-04-21T22:13:37.631Z,47.32
2019-04-21T22:16:06.469Z,47.21
2019-04-21T22:18:45.209Z,46.71
2019-04-21T22:21:14.213Z,46.44
2019-04-21T22:23:43.862Z,47.66
2019-04-21T22:26:05.398Z,48.41
2019-04-21T22:28:35.963Z,50.26
2019-04-21T22:31:15.083Z,50.26
2019-04-21T22:33:44.931Z,50.22
2019-04-21T22:36:23.362Z,51.10
2019-04-21T22:38:52.230Z,49.76
2019-04-21T22:41:23.278Z,49.63
2019-04-21T22:43:47.747Z,50.75
2019-04-21T22:46:15.481Z,48.71
2019-04-21T22:48:52.078Z,47.83
2019-04-21T22:51:23.977Z,48.16
2019-04-21T22:53:51.865Z,49.31
2019-04-21T22:56:25.559Z,50.59
2019-04-21T22:58:51.343Z,51.29
2019-04-21T23:01:30.166Z,51.22
2019-04-21T23:03:56.879Z,50.77
2019-04-21T23:06:27.573Z,51.22
2019-04-21T23:08:55.230Z,51.89
2019-04-21T23:11:29.248Z,51.81
2019-04-21T23:14:03.991Z,51.50
2019-04-21T23:16:35.220Z,51.65
2019-04-21T23:19:16.997Z,51.31
2019-04-21T23:21:50.083Z,51.67
2019-04-21T23:24:26.499Z,51.21
2019-04-21T23:26:47.273Z,52.70
2019-04-21T23:29:25.826Z,51.42
2019-04-21T23:31:57.963Z,51.10
2019-04-21T23:34:06.392Z,50.21
2019-04-21T23:36:41.867Z,50.77
2019-04-21T23:39:15.868Z,50.94
2019-04-21T23:41:44.465Z,51.85
2019-04-21T23:44:13.649Z,51.09
2019-04-21T23:46:42.618Z,50.88
2019-04-21T23:49:28.315Z,50.35
2019-04-21T23:51:50.898Z,50.09
2019-04-21T23:54:15.590Z,50.47
2019-04-21T23:56:47.622Z,49.80
2019-04-21T23:59:17.980Z,50.43
